createdAt,value
2023-02-08T00:02:16.741Z,16.13
2023-02-08T00:04:44.565Z,15.87
2023-02-08T00:07:15.941Z,14.77
2023-02-08T00:09:44.067Z,16.47
2023-02-08T00:12:12.405Z,16.07
2023-02-08T00:14:44.123Z,15.87
2023-02-08T00:17:18.827Z,15.03
2023-02-08T00:19:54.834Z,14.60
2023-02-08T00:22:27.076Z,14.93
2023-02-08T00:24:56.363Z,15.03
2023-02-08T00:27:25.932Z,15.23
2023-02-08T00:29:54.321Z,15.87
2023-02-08T00:32:30.764Z,14.43
2023-02-08T00:35:02.045Z,15.97
2023-02-08T00:37:31.780Z,15.50
2023-02-08T00:40:02.493Z,15.87
2023-02-08T00:42:30.997Z,14.83
2023-02-08T00:47:55.026Z,15.43
2023-02-08T00:50:29.042Z,15.60
2023-02-08T00:53:00.545Z,15.20
2023-02-08T00:55:29.105Z,15.87
2023-02-08T00:57:59.194Z,15.03
2023-02-08T01:00:27.436Z,15.10
2023-02-08T01:02:56.657Z,15.50
2023-02-08T01:05:26.076Z,15.10
2023-02-08T01:07:54.983Z,14.73
2023-02-08T01:10:30.333Z,14.53
2023-02-08T01:12:59.598Z,15.20
2023-02-08T01:15:29.853Z,14.37
2023-02-08T01:18:03.269Z,14.83
2023-02-08T01:20:32.245Z,14.93
2023-02-08T01:23:00.315Z,14.70
2023-02-08T01:25:29.008Z,13.83
2023-02-08T01:27:59.073Z,14.73
2023-02-08T01:30:27.486Z,14.43
2023-02-08T01:32:55.939Z,13.47
2023-02-08T01:35:25.349Z,13.73
2023-02-08T01:37:53.724Z,13.47
2023-02-08T01:40:26.889Z,13.60
2023-02-08T01:42:55.406Z,14.23
2023-02-08T01:45:29.029Z,14.20
2023-02-08T01:48:12.358Z,14.17
2023-02-08T01:50:51.086Z,14.70
2023-02-08T01:53:19.996Z,13.87
2023-02-08T01:55:51.012Z,14.80
2023-02-08T01:58:24.149Z,14.80
2023-02-08T02:00:54.319Z,14.10
2023-02-08T02:03:26.309Z,14.80
2023-02-08T02:06:01.210Z,15.03
2023-02-08T02:08:33.948Z,14.53
2023-02-08T02:11:05.603Z,15.83
2023-02-08T02:13:34.691Z,14.43
2023-02-08T02:16:02.850Z,14.93
2023-02-08T02:18:35.157Z,15.60
2023-02-08T02:21:25.996Z,13.97
2023-02-08T02:24:36.679Z,16.23
2023-02-08T02:27:28.061Z,14.93
2023-02-08T02:30:52.665Z,14.23
2023-02-08T02:33:52.093Z,14.60
2023-02-08T02:36:31.987Z,14.30
2023-02-08T02:39:18.021Z,14.30
2023-02-08T02:42:14.979Z,13.77
2023-02-08T02:45:00.102Z,15.63
2023-02-08T02:47:35.253Z,15.00
2023-02-08T02:50:13.200Z,16.20
2023-02-08T02:52:51.408Z,15.23
2023-02-08T02:55:27.832Z,15.00
2023-02-08T02:58:00.703Z,15.30
2023-02-08T03:00:32.297Z,15.20
2023-02-08T03:03:04.011Z,15.77
2023-02-08T03:05:35.062Z,15.43
2023-02-08T03:08:17.251Z,14.77
2023-02-08T03:11:11.203Z,15.43
2023-02-08T03:13:58.089Z,15.33
2023-02-08T03:16:35.039Z,14.90
2023-02-08T03:19:10.543Z,15.90
2023-02-08T03:21:52.716Z,15.13
2023-02-08T03:24:36.016Z,16.83
2023-02-08T03:27:10.936Z,15.77
2023-02-08T03:29:49.233Z,15.83
2023-02-08T03:32:24.604Z,16.47
2023-02-08T03:35:02.330Z,15.90
2023-02-08T03:37:38.022Z,15.43
2023-02-08T03:40:12.333Z,16.03
2023-02-08T03:42:42.121Z,16.30
2023-02-08T03:45:20.230Z,16.37
2023-02-08T03:47:54.549Z,15.90
2023-02-08T03:50:26.911Z,16.30
2023-02-08T03:52:58.722Z,15.57
2023-02-08T03:55:31.217Z,15.60
2023-02-08T03:58:08.774Z,15.53
2023-02-08T04:00:42.526Z,16.63
2023-02-08T04:03:20.248Z,15.40
2023-02-08T04:05:49.156Z,16.07
2023-02-08T04:08:24.548Z,16.00
2023-02-08T04:10:52.753Z,15.20
2023-02-08T04:13:20.729Z,15.97
2023-02-08T04:15:52.509Z,15.83
2023-02-08T04:18:20.679Z,14.87
2023-02-08T04:20:49.922Z,15.80
2023-02-08T04:23:19.785Z,16.23
2023-02-08T04:25:47.849Z,15.97
2023-02-08T04:28:16.779Z,16.17
2023-02-08T04:30:45.043Z,15.87
2023-02-08T04:33:14.849Z,16.50
2023-02-08T04:35:43.810Z,16.17
2023-02-08T04:38:13.316Z,16.00
2023-02-08T04:40:43.473Z,16.13
2023-02-08T04:43:14.730Z,16.17
2023-02-08T04:45:44.351Z,16.13
2023-02-08T04:48:14.743Z,15.77
2023-02-08T04:50:43.497Z,14.90
2023-02-08T04:53:14.911Z,14.33
2023-02-08T04:55:50.089Z,15.43
2023-02-08T04:58:18.821Z,16.47
2023-02-08T05:00:48.362Z,16.00
2023-02-08T05:03:19.471Z,15.90
2023-02-08T05:05:55.325Z,16.77
2023-02-08T05:08:27.176Z,16.07
2023-02-08T05:10:56.294Z,15.87
2023-02-08T05:13:24.999Z,16.20
2023-02-08T05:15:53.783Z,15.20
2023-02-08T05:18:27.303Z,14.63
2023-02-08T05:20:58.477Z,14.67
2023-02-08T05:23:30.930Z,14.67
2023-02-08T05:26:00.957Z,14.80
2023-02-08T05:28:32.301Z,15.97
2023-02-08T05:31:00.783Z,15.63
2023-02-08T05:33:32.718Z,15.87
2023-02-08T05:36:00.764Z,16.23
2023-02-08T05:38:30.456Z,17.03
2023-02-08T05:41:02.164Z,15.97
2023-02-08T05:43:31.766Z,15.70
2023-02-08T05:46:00.405Z,16.40
2023-02-08T05:48:30.039Z,15.77
2023-02-08T05:51:06.358Z,16.37
2023-02-08T05:53:37.046Z,16.53
2023-02-08T05:56:10.452Z,15.97
2023-02-08T05:58:43.424Z,15.93
2023-02-08T06:01:15.841Z,15.67
2023-02-08T06:03:44.062Z,16.23
2023-02-08T06:06:12.245Z,15.77
2023-02-08T06:08:44.560Z,15.80
2023-02-08T06:11:15.450Z,15.67
2023-02-08T06:13:45.160Z,15.00
2023-02-08T06:16:15.334Z,16.63
2023-02-08T06:18:43.770Z,15.50
2023-02-08T06:21:13.047Z,16.13
2023-02-08T06:23:41.536Z,13.77
2023-02-08T06:26:09.449Z,13.50
2023-02-08T06:28:40.436Z,12.63
2023-02-08T06:31:12.417Z,12.27
2023-02-08T06:33:41.959Z,12.67
2023-02-08T06:36:11.255Z,11.97
2023-02-08T06:38:39.531Z,12.33
2023-02-08T06:41:07.314Z,13.17
2023-02-08T06:43:36.472Z,12.73
2023-02-08T06:46:08.596Z,12.53
2023-02-08T06:48:39.677Z,12.83
2023-02-08T06:51:11.535Z,12.67
2023-02-08T06:53:40.582Z,13.07
2023-02-08T06:56:09.653Z,12.30
2023-02-08T06:58:40.422Z,12.90
2023-02-08T07:01:14.300Z,12.27
2023-02-08T07:03:46.514Z,11.87
2023-02-08T07:06:22.871Z,12.27
2023-02-08T07:08:52.591Z,12.73
2023-02-08T07:11:23.194Z,12.97
2023-02-08T07:13:52.216Z,12.47
2023-02-08T07:16:26.132Z,12.40
2023-02-08T07:18:58.459Z,12.60
2023-02-08T07:21:28.202Z,12.20
2023-02-08T07:24:01.496Z,12.53
2023-02-08T07:26:29.688Z,11.87
2023-02-08T07:29:01.489Z,11.80
2023-02-08T07:31:32.028Z,11.77
2023-02-08T07:34:05.500Z,11.73
2023-02-08T07:36:35.923Z,11.70
2023-02-08T07:39:11.922Z,11.60
2023-02-08T07:41:48.543Z,10.93
2023-02-08T07:44:17.513Z,11.70
2023-02-08T07:46:45.932Z,11.60
2023-02-08T07:49:15.972Z,11.87
2023-02-08T07:51:48.858Z,11.63
2023-02-08T07:54:18.194Z,11.80
2023-02-08T07:56:54.121Z,11.93
2023-02-08T07:59:22.406Z,11.47
2023-02-08T08:01:51.335Z,11.17
2023-02-08T08:04:22.081Z,11.07
2023-02-08T08:06:52.870Z,11.50
2023-02-08T08:09:24.367Z,11.93
2023-02-08T08:11:52.762Z,12.47
2023-02-08T08:14:21.590Z,12.37
2023-02-08T08:16:50.132Z,11.00
2023-02-08T08:19:21.216Z,11.10
2023-02-08T08:21:51.497Z,10.53
2023-02-08T08:24:19.556Z,10.00
2023-02-08T08:26:47.840Z,9.90
2023-02-08T08:29:18.131Z,11.30
2023-02-08T08:31:48.771Z,10.90
2023-02-08T08:34:20.969Z,10.57
2023-02-08T08:36:50.477Z,10.67
2023-02-08T08:39:19.433Z,10.97
2023-02-08T08:41:51.226Z,9.50
2023-02-08T08:44:19.219Z,9.87
2023-02-08T08:46:47.405Z,9.87
2023-02-08T08:49:16.214Z,8.70
2023-02-08T08:51:44.440Z,8.20
2023-02-08T08:54:14.628Z,7.73
2023-02-08T08:56:47.448Z,8.53
2023-02-08T08:59:16.253Z,7.70
2023-02-08T09:01:45.243Z,7.60
2023-02-08T09:04:14.297Z,7.60
2023-02-08T09:06:43.310Z,7.90
2023-02-08T09:09:13.246Z,8.20
2023-02-08T09:11:42.944Z,7.17
2023-02-08T09:14:11.554Z,7.67
2023-02-08T09:16:42.838Z,8.43
2023-02-08T09:19:12.079Z,7.70
2023-02-08T09:21:41.362Z,7.93
2023-02-08T09:24:09.546Z,8.70
2023-02-08T09:26:41.211Z,8.63
2023-02-08T09:29:10.278Z,8.33
2023-02-08T09:31:39.891Z,8.20
2023-02-08T09:34:09.790Z,8.57
2023-02-08T09:36:45.563Z,9.23
2023-02-08T09:39:17.086Z,8.07
2023-02-08T09:42:18.689Z,14.10
2023-02-08T09:45:03.389Z,8.83
2023-02-08T09:47:36.140Z,9.13
2023-02-08T09:50:15.192Z,11.87
2023-02-08T09:52:51.813Z,8.83
2023-02-08T09:55:32.668Z,9.03
2023-02-08T09:58:06.420Z,9.37
2023-02-08T10:00:38.181Z,9.53
2023-02-08T10:03:12.301Z,10.33
2023-02-08T10:05:40.623Z,9.83
2023-02-08T10:08:12.983Z,9.67
2023-02-08T10:10:51.999Z,10.40
2023-02-08T10:13:41.920Z,10.17
2023-02-08T10:16:21.806Z,9.37
2023-02-08T10:19:05.308Z,10.83
2023-02-08T10:21:54.082Z,9.70
2023-02-08T10:24:53.165Z,10.33
2023-02-08T10:27:28.184Z,9.27
2023-02-08T10:30:34.707Z,10.90
2023-02-08T10:33:05.186Z,10.27
2023-02-08T10:35:40.552Z,10.53
2023-02-08T10:38:34.443Z,9.80
2023-02-08T10:41:17.221Z,10.30
2023-02-08T10:43:53.058Z,10.40
2023-02-08T10:46:30.487Z,10.33
2023-02-08T10:49:08.485Z,10.30
2023-02-08T10:51:39.495Z,9.77
2023-02-08T10:54:15.820Z,10.27
2023-02-08T10:56:52.181Z,10.50
2023-02-08T10:59:32.696Z,9.40
2023-02-08T11:02:04.171Z,9.83
2023-02-08T11:04:36.040Z,10.43
2023-02-08T11:07:21.496Z,11.30
2023-02-08T11:09:52.007Z,9.93
2023-02-08T11:12:28.223Z,9.90
2023-02-08T11:14:59.712Z,9.87
2023-02-08T11:17:34.033Z,9.93
2023-02-08T11:20:05.133Z,10.47
2023-02-08T11:22:35.259Z,10.03
2023-02-08T11:25:08.693Z,10.80
2023-02-08T11:27:42.169Z,9.67
2023-02-08T11:30:27.117Z,10.93
2023-02-08T11:33:33.773Z,9.93
2023-02-08T11:36:16.934Z,10.37
2023-02-08T11:38:47.050Z,9.90
2023-02-08T11:41:19.175Z,10.37
2023-02-08T11:44:09.481Z,9.87
2023-02-08T11:46:42.979Z,9.07
2023-02-08T11:49:25.211Z,8.93
2023-02-08T11:51:58.336Z,8.87
2023-02-08T11:54:42.336Z,9.10
2023-02-08T11:57:18.726Z,10.80
2023-02-08T11:59:49.597Z,10.13
2023-02-08T12:02:35.951Z,9.13
2023-02-08T12:05:13.072Z,10.43
2023-02-08T12:08:03.390Z,9.23
2023-02-08T12:11:04.564Z,9.73
2023-02-08T12:13:47.046Z,9.37
2023-02-08T12:16:38.923Z,8.87
2023-02-08T12:19:54.366Z,8.90
2023-02-08T12:22:26.969Z,9.40
2023-02-08T12:25:07.978Z,8.80
2023-02-08T12:27:44.747Z,10.27
2023-02-08T12:30:23.295Z,8.37
2023-02-08T12:33:20.648Z,8.20
2023-02-08T12:36:10.527Z,8.37
2023-02-08T12:41:54.645Z,7.83
2023-02-08T12:44:54.702Z,7.03
2023-02-08T12:48:03.426Z,7.57
2023-02-08T12:50:46.836Z,8.23
2023-02-08T12:57:02.121Z,6.40
2023-02-08T12:59:37.255Z,6.90
2023-02-08T13:02:19.615Z,4.77
2023-02-08T13:04:53.809Z,5.73
2023-02-08T13:07:27.116Z,6.47
2023-02-08T13:10:08.209Z,7.10
2023-02-08T13:12:44.093Z,6.87
2023-02-08T13:15:30.535Z,7.47
2023-02-08T13:18:04.310Z,7.97
2023-02-08T13:20:43.868Z,7.77
2023-02-08T13:23:19.453Z,7.57
2023-02-08T13:25:51.239Z,7.70
2023-02-08T13:28:26.470Z,7.20
2023-02-08T13:31:00.990Z,7.00
2023-02-08T13:33:49.232Z,7.80
2023-02-08T13:36:28.672Z,6.37
2023-02-08T13:39:00.259Z,6.13
2023-02-08T13:41:57.320Z,5.60
2023-02-08T13:44:33.985Z,5.10
2023-02-08T13:47:09.104Z,5.97
2023-02-08T13:49:53.890Z,4.40
2023-02-08T13:52:50.876Z,4.80
2023-02-08T13:56:06.202Z,4.50
2023-02-08T13:58:58.662Z,4.87
2023-02-08T14:01:30.450Z,5.07
2023-02-08T14:04:20.287Z,4.77
2023-02-08T14:06:52.378Z,4.47
2023-02-08T14:09:32.050Z,4.80
2023-02-08T14:12:04.676Z,4.60
2023-02-08T14:14:45.429Z,4.47
2023-02-08T14:17:30.692Z,4.83
2023-02-08T14:20:02.397Z,5.77
2023-02-08T14:22:40.716Z,4.60
2023-02-08T14:25:19.600Z,4.90
2023-02-08T14:27:55.156Z,4.13
2023-02-08T14:30:28.229Z,4.97
2023-02-08T14:33:16.426Z,4.77
2023-02-08T14:36:16.570Z,4.50
2023-02-08T14:39:08.750Z,5.57
2023-02-08T14:41:47.526Z,4.70
2023-02-08T14:44:53.035Z,4.70
2023-02-08T14:48:00.310Z,4.20
2023-02-08T14:50:36.730Z,4.70
2023-02-08T14:53:21.479Z,4.87
2023-02-08T14:55:57.123Z,4.17
2023-02-08T14:58:37.097Z,3.80
2023-02-08T15:01:25.711Z,4.67
2023-02-08T15:04:02.001Z,4.77
2023-02-08T15:07:01.985Z,4.57
2023-02-08T15:09:36.731Z,4.53
2023-02-08T15:12:09.241Z,4.40
2023-02-08T15:14:41.084Z,5.20
2023-02-08T15:17:24.708Z,4.53
2023-02-08T15:20:02.818Z,4.60
2023-02-08T15:22:41.002Z,4.87
2023-02-08T15:25:31.452Z,4.80
2023-02-08T15:28:18.939Z,4.80
2023-02-08T15:30:54.983Z,4.60
2023-02-08T15:33:24.470Z,4.87
2023-02-08T15:36:00.706Z,4.77
2023-02-08T15:38:32.105Z,4.30
2023-02-08T15:41:04.860Z,4.43
2023-02-08T15:43:38.499Z,4.43
2023-02-08T15:46:22.637Z,4.50
2023-02-08T15:48:52.579Z,4.90
2023-02-08T15:51:24.467Z,4.70
2023-02-08T15:53:58.231Z,5.40
2023-02-08T15:56:37.242Z,5.27
2023-02-08T15:59:10.971Z,5.10
2023-02-08T16:01:40.187Z,6.27
2023-02-08T16:04:12.924Z,6.07
2023-02-08T16:06:50.338Z,5.63
2023-02-08T16:09:32.468Z,5.13
2023-02-08T16:12:08.315Z,5.80
2023-02-08T16:14:52.386Z,5.00
2023-02-08T16:17:40.357Z,6.43
2023-02-08T16:20:30.158Z,5.47
2023-02-08T16:23:06.584Z,5.07
2023-02-08T16:25:49.832Z,5.60
2023-02-08T16:28:30.612Z,5.37
2023-02-08T16:31:03.921Z,5.63
2023-02-08T16:33:34.822Z,5.23
2023-02-08T16:36:05.216Z,5.33
2023-02-08T16:38:36.029Z,5.30
2023-02-08T16:41:25.721Z,5.33
2023-02-08T16:44:18.871Z,5.30
2023-02-08T16:46:46.814Z,6.03
2023-02-08T16:49:15.238Z,5.93
2023-02-08T16:51:45.037Z,5.77
2023-02-08T16:54:16.833Z,5.77
2023-02-08T16:56:49.659Z,6.57
2023-02-08T16:59:19.593Z,8.80
2023-02-08T17:01:50.131Z,11.67
2023-02-08T17:04:21.679Z,6.87
2023-02-08T17:06:53.947Z,6.87
2023-02-08T17:09:25.761Z,7.63
2023-02-08T17:11:55.799Z,7.17
2023-02-08T17:14:23.749Z,6.63
2023-02-08T17:16:52.827Z,7.33
2023-02-08T17:19:22.712Z,8.13
2023-02-08T17:21:52.286Z,6.63
2023-02-08T17:24:22.886Z,7.00
2023-02-08T17:26:51.823Z,7.03
2023-02-08T17:29:23.500Z,7.77
2023-02-08T17:31:52.266Z,7.10
2023-02-08T17:34:23.023Z,6.70
2023-02-08T17:36:56.401Z,8.30
2023-02-08T17:39:25.495Z,7.40
2023-02-08T17:41:56.469Z,7.37
2023-02-08T17:44:27.057Z,7.13
2023-02-08T17:46:58.994Z,7.97
2023-02-08T17:49:27.628Z,8.43
2023-02-08T17:51:59.739Z,7.83
2023-02-08T17:54:30.389Z,8.57
2023-02-08T17:56:59.919Z,8.83
2023-02-08T17:59:29.812Z,8.23
2023-02-08T18:01:58.255Z,7.87
2023-02-08T18:04:30.082Z,8.23
2023-02-08T18:07:00.497Z,7.90
2023-02-08T18:09:29.631Z,8.50
2023-02-08T18:12:01.300Z,9.13
2023-02-08T18:14:35.265Z,9.00
2023-02-08T18:17:07.425Z,10.83
2023-02-08T18:19:37.538Z,9.47
2023-02-08T18:22:10.008Z,9.03
2023-02-08T18:24:40.388Z,9.97
2023-02-08T18:27:09.820Z,10.90
2023-02-08T18:29:49.028Z,20.13
2023-02-08T18:32:43.663Z,14.80
2023-02-08T18:38:11.218Z,18.30
2023-02-08T18:41:00.196Z,17.67
2023-02-08T18:43:43.533Z,15.23
2023-02-08T18:46:18.344Z,12.20
2023-02-08T18:48:51.464Z,9.77
2023-02-08T18:51:24.924Z,10.77
2023-02-08T18:53:57.723Z,10.90
2023-02-08T18:56:37.515Z,14.17
2023-02-08T19:07:38.113Z,12.70
2023-02-08T19:10:07.352Z,11.80
2023-02-08T19:12:59.460Z,10.53
2023-02-08T19:15:33.724Z,9.27
2023-02-08T19:18:17.259Z,9.50
2023-02-08T19:23:46.564Z,10.77
2023-02-08T19:26:36.809Z,11.23
2023-02-08T19:35:04.500Z,10.83
2023-02-08T19:37:57.502Z,9.73
2023-02-08T19:40:42.640Z,9.60
2023-02-08T19:43:24.813Z,10.23
2023-02-08T19:48:57.019Z,11.13
2023-02-08T19:51:26.178Z,11.73
2023-02-08T19:53:58.586Z,11.57
2023-02-08T19:56:35.303Z,13.00
2023-02-08T19:59:15.294Z,10.70
2023-02-08T20:01:45.409Z,11.00
2023-02-08T20:07:05.608Z,10.77
2023-02-08T20:09:37.945Z,11.63
2023-02-08T20:12:10.468Z,10.30
2023-02-08T20:15:08.172Z,10.77
2023-02-08T20:17:54.043Z,10.27
2023-02-08T20:20:23.039Z,11.13
2023-02-08T20:22:51.160Z,11.53
2023-02-08T20:25:23.585Z,11.37
2023-02-08T20:27:52.925Z,11.10
2023-02-08T20:30:25.370Z,10.87
2023-02-08T20:32:55.101Z,11.17
2023-02-08T20:35:23.315Z,10.83
2023-02-08T20:37:51.335Z,10.90
2023-02-08T20:40:24.209Z,11.07
2023-02-08T20:42:53.228Z,11.03
2023-02-08T20:45:25.151Z,11.23
2023-02-08T20:47:54.142Z,11.70
2023-02-08T20:50:24.855Z,10.77
2023-02-08T20:52:54.562Z,10.83
2023-02-08T20:55:24.788Z,11.20
2023-02-08T20:57:55.520Z,11.23
2023-02-08T21:00:36.779Z,10.90
2023-02-08T21:03:15.522Z,11.20
2023-02-08T21:05:51.905Z,11.10
2023-02-08T21:08:20.969Z,10.93
2023-02-08T21:10:51.933Z,11.37
2023-02-08T21:13:22.186Z,10.80
2023-02-08T21:15:50.497Z,11.37
2023-02-08T21:18:18.868Z,11.87
2023-02-08T21:20:57.323Z,12.37
2023-02-08T21:23:27.076Z,12.30
2023-02-08T21:25:58.274Z,10.67
2023-02-08T21:28:27.195Z,12.07
2023-02-08T21:30:59.129Z,11.73
2023-02-08T21:33:29.346Z,11.30
2023-02-08T21:36:08.053Z,11.33
2023-02-08T21:38:38.364Z,12.00
2023-02-08T21:41:20.387Z,12.73
2023-02-08T21:43:49.545Z,12.13
2023-02-08T21:46:19.931Z,11.60
2023-02-08T21:49:07.774Z,12.13
2023-02-08T21:51:55.552Z,12.10
2023-02-08T21:54:48.845Z,11.40
2023-02-08T21:57:22.187Z,12.40
2023-02-08T21:59:55.210Z,12.00
2023-02-08T22:02:28.581Z,11.77
2023-02-08T22:05:04.513Z,13.17
2023-02-08T22:07:50.434Z,12.33
2023-02-08T22:17:38.207Z,11.47
2023-02-08T22:20:14.473Z,13.23
2023-02-08T22:22:45.582Z,12.43
2023-02-08T22:25:43.533Z,11.80
2023-02-08T22:29:07.733Z,12.70
2023-02-08T22:31:39.226Z,13.13
2023-02-08T22:34:17.618Z,12.87
2023-02-08T22:36:51.871Z,14.03
2023-02-08T22:39:55.581Z,14.07
2023-02-08T22:46:40.863Z,13.70
2023-02-08T22:59:45.710Z,13.60
2023-02-08T23:02:19.971Z,12.37
2023-02-08T23:36:36.636Z,12.60
2023-02-08T23:40:07.445Z,14.30
2023-02-08T23:43:34.371Z,13.60
2023-02-08T23:50:55.108Z,13.57
